sensor_id;sensor_type;location;lat;lon;timestamp;P1;durP1;ratioP1;P2;durP2;ratioP2
14078;SDS011;7115;50.150;8.568;2024-02-26T00:02:21;1.57;;;0.83;;
14078;SDS011;7115;50.150;8.568;2024-02-26T00:04:48;1.70;;;1.00;;
14078;SDS011;7115;50.150;8.568;2024-02-26T00:07:16;1.37;;;0.80;;
14078;SDS011;7115;50.150;8.568;2024-02-26T00:09:43;1.37;;;0.83;;
14078;SDS011;7115;50.150;8.568;2024-02-26T00:12:10;1.03;;;0.53;;
14078;SDS011;7115;50.150;8.568;2024-02-26T00:14:38;1.30;;;0.80;;
14078;SDS011;7115;50.150;8.568;2024-02-26T00:17:05;1.50;;;0.90;;
14078;SDS011;7115;50.150;8.568;2024-02-26T00:19:32;1.13;;;0.87;;
14078;SDS011;7115;50.150;8.568;2024-02-26T00:22:01;1.20;;;0.60;;
14078;SDS011;7115;50.150;8.568;2024-02-26T00:24:28;0.93;;;0.63;;
14078;SDS011;7115;50.150;8.568;2024-02-26T00:26:55;1.67;;;0.93;;
14078;SDS011;7115;50.150;8.568;2024-02-26T00:29:22;1.50;;;0.90;;
14078;SDS011;7115;50.150;8.568;2024-02-26T00:31:50;1.83;;;0.97;;
14078;SDS011;7115;50.150;8.568;2024-02-26T00:34:17;1.23;;;0.90;;
14078;SDS011;7115;50.150;8.568;2024-02-26T00:36:45;1.63;;;0.70;;
14078;SDS011;7115;50.150;8.568;2024-02-26T00:39:12;1.53;;;0.93;;
14078;SDS011;7115;50.150;8.568;2024-02-26T00:41:39;1.13;;;0.83;;
14078;SDS011;7115;50.150;8.568;2024-02-26T00:44:07;1.27;;;0.97;;
14078;SDS011;7115;50.150;8.568;2024-02-26T00:46:34;1.23;;;0.87;;
14078;SDS011;7115;50.150;8.568;2024-02-26T00:49:02;2.30;;;0.70;;
14078;SDS011;7115;50.150;8.568;2024-02-26T00:51:30;1.83;;;0.90;;
14078;SDS011;7115;50.150;8.568;2024-02-26T00:53:57;1.53;;;0.90;;
14078;SDS011;7115;50.150;8.568;2024-02-26T00:56:24;3.27;;;0.77;;
14078;SDS011;7115;50.150;8.568;2024-02-26T00:58:51;1.60;;;0.83;;
14078;SDS011;7115;50.150;8.568;2024-02-26T01:01:18;1.13;;;0.70;;
14078;SDS011;7115;50.150;8.568;2024-02-26T01:03:46;3.30;;;0.97;;
14078;SDS011;7115;50.150;8.568;2024-02-26T01:06:14;1.10;;;0.73;;
14078;SDS011;7115;50.150;8.568;2024-02-26T01:08:41;2.13;;;1.10;;
14078;SDS011;7115;50.150;8.568;2024-02-26T01:11:09;1.40;;;0.83;;
14078;SDS011;7115;50.150;8.568;2024-02-26T01:13:36;2.97;;;0.77;;
14078;SDS011;7115;50.150;8.568;2024-02-26T01:16:03;2.43;;;0.73;;
14078;SDS011;7115;50.150;8.568;2024-02-26T01:18:30;2.80;;;1.07;;
14078;SDS011;7115;50.150;8.568;2024-02-26T01:20:58;2.07;;;1.00;;
14078;SDS011;7115;50.150;8.568;2024-02-26T01:23:26;1.33;;;1.03;;
14078;SDS011;7115;50.150;8.568;2024-02-26T01:25:54;2.20;;;1.00;;
14078;SDS011;7115;50.150;8.568;2024-02-26T01:28:21;1.27;;;0.80;;
14078;SDS011;7115;50.150;8.568;2024-02-26T01:30:48;3.10;;;0.90;;
14078;SDS011;7115;50.150;8.568;2024-02-26T01:33:15;1.20;;;0.97;;
14078;SDS011;7115;50.150;8.568;2024-02-26T01:35:42;1.73;;;0.97;;
14078;SDS011;7115;50.150;8.568;2024-02-26T01:38:09;1.20;;;0.73;;
14078;SDS011;7115;50.150;8.568;2024-02-26T01:40:38;3.00;;;1.17;;
14078;SDS011;7115;50.150;8.568;2024-02-26T01:43:05;2.60;;;0.93;;
14078;SDS011;7115;50.150;8.568;2024-02-26T01:45:32;2.27;;;1.03;;
14078;SDS011;7115;50.150;8.568;2024-02-26T01:47:59;1.23;;;0.80;;
14078;SDS011;7115;50.150;8.568;2024-02-26T01:50:26;1.20;;;0.70;;
14078;SDS011;7115;50.150;8.568;2024-02-26T01:52:54;1.30;;;0.93;;
14078;SDS011;7115;50.150;8.568;2024-02-26T01:55:23;2.23;;;1.10;;
14078;SDS011;7115;50.150;8.568;2024-02-26T01:57:52;2.87;;;1.57;;
14078;SDS011;7115;50.150;8.568;2024-02-26T02:00:20;2.23;;;1.53;;
14078;SDS011;7115;50.150;8.568;2024-02-26T02:02:48;4.67;;;1.80;;
14078;SDS011;7115;50.150;8.568;2024-02-26T02:05:16;3.07;;;1.80;;
14078;SDS011;7115;50.150;8.568;2024-02-26T02:07:44;2.93;;;1.53;;
14078;SDS011;7115;50.150;8.568;2024-02-26T02:10:13;1.00;;;0.90;;
14078;SDS011;7115;50.150;8.568;2024-02-26T02:12:40;2.67;;;1.00;;
14078;SDS011;7115;50.150;8.568;2024-02-26T02:15:09;3.03;;;1.30;;
14078;SDS011;7115;50.150;8.568;2024-02-26T02:17:36;3.43;;;1.67;;
14078;SDS011;7115;50.150;8.568;2024-02-26T02:20:04;2.00;;;1.13;;
14078;SDS011;7115;50.150;8.568;2024-02-26T02:22:36;1.53;;;1.03;;
14078;SDS011;7115;50.150;8.568;2024-02-26T02:25:04;3.57;;;1.60;;
14078;SDS011;7115;50.150;8.568;2024-02-26T02:27:31;2.13;;;1.30;;
14078;SDS011;7115;50.150;8.568;2024-02-26T02:29:59;1.90;;;1.17;;
14078;SDS011;7115;50.150;8.568;2024-02-26T02:32:26;2.07;;;1.27;;
14078;SDS011;7115;50.150;8.568;2024-02-26T02:34:54;2.50;;;0.97;;
14078;SDS011;7115;50.150;8.568;2024-02-26T02:37:21;1.40;;;0.90;;
14078;SDS011;7115;50.150;8.568;2024-02-26T02:39:49;1.90;;;0.90;;
14078;SDS011;7115;50.150;8.568;2024-02-26T02:42:16;1.33;;;0.90;;
14078;SDS011;7115;50.150;8.568;2024-02-26T02:44:43;1.27;;;1.10;;
14078;SDS011;7115;50.150;8.568;2024-02-26T02:47:11;2.10;;;1.23;;
14078;SDS011;7115;50.150;8.568;2024-02-26T02:49:38;1.93;;;1.07;;
14078;SDS011;7115;50.150;8.568;2024-02-26T02:52:05;1.90;;;1.40;;
14078;SDS011;7115;50.150;8.568;2024-02-26T02:54:32;2.17;;;1.27;;
14078;SDS011;7115;50.150;8.568;2024-02-26T02:57:00;1.83;;;1.00;;
14078;SDS011;7115;50.150;8.568;2024-02-26T02:59:27;1.20;;;0.97;;
14078;SDS011;7115;50.150;8.568;2024-02-26T03:01:57;1.93;;;1.20;;
14078;SDS011;7115;50.150;8.568;2024-02-26T03:04:24;1.57;;;1.10;;
14078;SDS011;7115;50.150;8.568;2024-02-26T03:06:51;2.17;;;1.33;;
14078;SDS011;7115;50.150;8.568;2024-02-26T03:09:18;2.40;;;1.30;;
14078;SDS011;7115;50.150;8.568;2024-02-26T03:11:45;1.93;;;1.10;;
14078;SDS011;7115;50.150;8.568;2024-02-26T03:14:14;2.60;;;1.40;;
14078;SDS011;7115;50.150;8.568;2024-02-26T03:16:41;1.97;;;1.20;;
14078;SDS011;7115;50.150;8.568;2024-02-26T03:19:08;3.07;;;1.60;;
14078;SDS011;7115;50.150;8.568;2024-02-26T03:21:35;1.77;;;1.20;;
14078;SDS011;7115;50.150;8.568;2024-02-26T03:24:02;2.97;;;1.50;;
14078;SDS011;7115;50.150;8.568;2024-02-26T03:26:29;5.67;;;1.57;;
14078;SDS011;7115;50.150;8.568;2024-02-26T03:28:57;1.60;;;1.20;;
14078;SDS011;7115;50.150;8.568;2024-02-26T03:31:25;1.53;;;1.40;;
14078;SDS011;7115;50.150;8.568;2024-02-26T03:33:52;2.23;;;1.40;;
14078;SDS011;7115;50.150;8.568;2024-02-26T03:36:20;1.63;;;1.10;;
14078;SDS011;7115;50.150;8.568;2024-02-26T03:38:48;1.60;;;1.50;;
14078;SDS011;7115;50.150;8.568;2024-02-26T03:41:15;2.10;;;1.30;;
14078;SDS011;7115;50.150;8.568;2024-02-26T03:43:42;3.23;;;1.57;;
14078;SDS011;7115;50.150;8.568;2024-02-26T03:46:09;2.77;;;1.10;;
14078;SDS011;7115;50.150;8.568;2024-02-26T03:48:41;2.30;;;1.53;;
14078;SDS011;7115;50.150;8.568;2024-02-26T03:51:08;1.97;;;1.53;;
14078;SDS011;7115;50.150;8.568;2024-02-26T03:53:36;2.17;;;1.40;;
14078;SDS011;7115;50.150;8.568;2024-02-26T03:56:04;2.73;;;1.50;;
14078;SDS011;7115;50.150;8.568;2024-02-26T03:58:31;2.17;;;1.60;;
14078;SDS011;7115;50.150;8.568;2024-02-26T04:00:58;2.33;;;1.20;;
14078;SDS011;7115;50.150;8.568;2024-02-26T04:03:25;2.67;;;1.67;;
14078;SDS011;7115;50.150;8.568;2024-02-26T04:05:54;3.30;;;1.23;;
14078;SDS011;7115;50.150;8.568;2024-02-26T04:08:21;2.33;;;1.40;;
14078;SDS011;7115;50.150;8.568;2024-02-26T04:10:48;4.10;;;1.60;;
14078;SDS011;7115;50.150;8.568;2024-02-26T04:13:16;3.53;;;2.17;;
14078;SDS011;7115;50.150;8.568;2024-02-26T04:15:43;2.73;;;1.80;;
14078;SDS011;7115;50.150;8.568;2024-02-26T04:18:11;3.87;;;1.43;;
14078;SDS011;7115;50.150;8.568;2024-02-26T04:20:38;1.87;;;1.40;;
14078;SDS011;7115;50.150;8.568;2024-02-26T04:23:06;3.73;;;1.77;;
14078;SDS011;7115;50.150;8.568;2024-02-26T04:25:33;2.90;;;1.70;;
14078;SDS011;7115;50.150;8.568;2024-02-26T04:28:00;2.10;;;1.57;;
14078;SDS011;7115;50.150;8.568;2024-02-26T04:30:27;3.23;;;1.70;;
14078;SDS011;7115;50.150;8.568;2024-02-26T04:32:54;2.57;;;1.20;;
14078;SDS011;7115;50.150;8.568;2024-02-26T04:35:21;3.50;;;2.00;;
14078;SDS011;7115;50.150;8.568;2024-02-26T04:37:48;2.40;;;1.70;;
14078;SDS011;7115;50.150;8.568;2024-02-26T04:40:16;2.83;;;1.97;;
14078;SDS011;7115;50.150;8.568;2024-02-26T04:42:43;3.57;;;1.70;;
14078;SDS011;7115;50.150;8.568;2024-02-26T04:45:10;2.90;;;1.80;;
14078;SDS011;7115;50.150;8.568;2024-02-26T04:47:37;2.93;;;1.83;;
14078;SDS011;7115;50.150;8.568;2024-02-26T04:50:05;3.63;;;1.73;;
14078;SDS011;7115;50.150;8.568;2024-02-26T04:52:32;3.63;;;1.83;;
14078;SDS011;7115;50.150;8.568;2024-02-26T04:54:59;2.20;;;1.83;;
14078;SDS011;7115;50.150;8.568;2024-02-26T04:57:28;2.83;;;1.80;;
14078;SDS011;7115;50.150;8.568;2024-02-26T04:59:55;2.20;;;1.53;;
14078;SDS011;7115;50.150;8.568;2024-02-26T05:02:21;2.57;;;2.30;;
14078;SDS011;7115;50.150;8.568;2024-02-26T05:04:49;3.33;;;1.97;;
14078;SDS011;7115;50.150;8.568;2024-02-26T05:07:15;2.53;;;1.90;;
14078;SDS011;7115;50.150;8.568;2024-02-26T05:09:46;2.77;;;2.13;;
14078;SDS011;7115;50.150;8.568;2024-02-26T05:12:15;3.40;;;2.10;;
14078;SDS011;7115;50.150;8.568;2024-02-26T05:14:44;2.73;;;2.00;;
14078;SDS011;7115;50.150;8.568;2024-02-26T05:17:11;3.50;;;2.20;;
14078;SDS011;7115;50.150;8.568;2024-02-26T05:19:38;3.53;;;1.73;;
14078;SDS011;7115;50.150;8.568;2024-02-26T05:22:06;4.50;;;2.23;;
14078;SDS011;7115;50.150;8.568;2024-02-26T05:24:33;3.33;;;2.27;;
14078;SDS011;7115;50.150;8.568;2024-02-26T05:27:00;4.17;;;2.03;;
14078;SDS011;7115;50.150;8.568;2024-02-26T05:29:27;2.73;;;2.07;;
14078;SDS011;7115;50.150;8.568;2024-02-26T05:31:55;3.47;;;2.30;;
14078;SDS011;7115;50.150;8.568;2024-02-26T05:34:22;2.87;;;1.77;;
14078;SDS011;7115;50.150;8.568;2024-02-26T05:36:49;3.60;;;2.23;;
14078;SDS011;7115;50.150;8.568;2024-02-26T05:39:16;3.20;;;2.03;;
14078;SDS011;7115;50.150;8.568;2024-02-26T05:41:46;3.50;;;2.30;;
14078;SDS011;7115;50.150;8.568;2024-02-26T05:44:13;3.67;;;2.10;;
14078;SDS011;7115;50.150;8.568;2024-02-26T05:46:41;2.83;;;2.13;;
14078;SDS011;7115;50.150;8.568;2024-02-26T05:49:09;5.57;;;2.00;;
14078;SDS011;7115;50.150;8.568;2024-02-26T05:51:37;3.83;;;2.70;;
14078;SDS011;7115;50.150;8.568;2024-02-26T05:54:04;5.13;;;2.60;;
14078;SDS011;7115;50.150;8.568;2024-02-26T05:56:31;2.67;;;2.17;;
14078;SDS011;7115;50.150;8.568;2024-02-26T05:58:58;4.07;;;2.53;;
14078;SDS011;7115;50.150;8.568;2024-02-26T06:01:25;3.97;;;2.20;;
14078;SDS011;7115;50.150;8.568;2024-02-26T06:03:52;4.20;;;2.73;;
14078;SDS011;7115;50.150;8.568;2024-02-26T06:06:21;4.10;;;2.30;;
14078;SDS011;7115;50.150;8.568;2024-02-26T06:08:49;4.77;;;3.00;;
14078;SDS011;7115;50.150;8.568;2024-02-26T06:11:17;4.00;;;2.53;;
14078;SDS011;7115;50.150;8.568;2024-02-26T06:13:44;3.60;;;2.50;;
14078;SDS011;7115;50.150;8.568;2024-02-26T06:16:11;3.27;;;2.57;;
14078;SDS011;7115;50.150;8.568;2024-02-26T06:18:38;3.43;;;2.17;;
14078;SDS011;7115;50.150;8.568;2024-02-26T06:21:08;5.03;;;2.63;;
14078;SDS011;7115;50.150;8.568;2024-02-26T06:23:38;6.00;;;2.80;;
14078;SDS011;7115;50.150;8.568;2024-02-26T06:26:05;3.53;;;3.03;;
14078;SDS011;7115;50.150;8.568;2024-02-26T06:28:32;4.47;;;2.57;;
14078;SDS011;7115;50.150;8.568;2024-02-26T06:31:00;5.13;;;3.10;;
14078;SDS011;7115;50.150;8.568;2024-02-26T06:33:27;4.97;;;3.10;;
14078;SDS011;7115;50.150;8.568;2024-02-26T06:35:54;4.67;;;2.80;;
14078;SDS011;7115;50.150;8.568;2024-02-26T06:38:21;5.73;;;2.87;;
14078;SDS011;7115;50.150;8.568;2024-02-26T06:40:49;5.90;;;3.20;;
14078;SDS011;7115;50.150;8.568;2024-02-26T06:43:16;3.67;;;2.73;;
14078;SDS011;7115;50.150;8.568;2024-02-26T06:45:43;4.30;;;3.23;;
14078;SDS011;7115;50.150;8.568;2024-02-26T06:48:10;8.10;;;2.70;;
14078;SDS011;7115;50.150;8.568;2024-02-26T06:50:38;5.57;;;2.57;;
14078;SDS011;7115;50.150;8.568;2024-02-26T06:53:04;6.87;;;2.97;;
14078;SDS011;7115;50.150;8.568;2024-02-26T06:55:33;4.33;;;2.43;;
14078;SDS011;7115;50.150;8.568;2024-02-26T06:58:02;8.57;;;3.23;;
14078;SDS011;7115;50.150;8.568;2024-02-26T07:00:29;3.77;;;3.00;;
14078;SDS011;7115;50.150;8.568;2024-02-26T07:02:56;5.57;;;3.30;;
14078;SDS011;7115;50.150;8.568;2024-02-26T07:05:23;4.63;;;3.07;;
14078;SDS011;7115;50.150;8.568;2024-02-26T07:07:50;4.60;;;2.87;;
14078;SDS011;7115;50.150;8.568;2024-02-26T07:10:17;4.83;;;3.13;;
14078;SDS011;7115;50.150;8.568;2024-02-26T07:12:44;5.40;;;3.07;;
14078;SDS011;7115;50.150;8.568;2024-02-26T07:15:12;6.07;;;3.30;;
14078;SDS011;7115;50.150;8.568;2024-02-26T07:17:39;4.70;;;3.10;;
14078;SDS011;7115;50.150;8.568;2024-02-26T07:20:14;9.10;;;5.47;;
14078;SDS011;7115;50.150;8.568;2024-02-26T07:22:41;7.73;;;5.10;;
14078;SDS011;7115;50.150;8.568;2024-02-26T07:25:09;6.73;;;4.20;;
14078;SDS011;7115;50.150;8.568;2024-02-26T07:27:40;4.87;;;2.80;;
14078;SDS011;7115;50.150;8.568;2024-02-26T07:30:07;5.93;;;3.17;;
14078;SDS011;7115;50.150;8.568;2024-02-26T07:32:37;4.00;;;3.07;;
14078;SDS011;7115;50.150;8.568;2024-02-26T07:35:04;4.80;;;3.07;;
14078;SDS011;7115;50.150;8.568;2024-02-26T07:37:32;6.67;;;2.77;;
14078;SDS011;7115;50.150;8.568;2024-02-26T07:39:59;4.47;;;3.27;;
14078;SDS011;7115;50.150;8.568;2024-02-26T07:42:26;5.00;;;2.87;;
14078;SDS011;7115;50.150;8.568;2024-02-26T07:44:53;3.70;;;2.80;;
14078;SDS011;7115;50.150;8.568;2024-02-26T07:47:20;3.50;;;2.57;;
14078;SDS011;7115;50.150;8.568;2024-02-26T07:49:49;3.47;;;2.60;;
14078;SDS011;7115;50.150;8.568;2024-02-26T07:52:16;3.33;;;2.33;;
14078;SDS011;7115;50.150;8.568;2024-02-26T07:54:43;5.60;;;3.03;;
14078;SDS011;7115;50.150;8.568;2024-02-26T07:57:10;4.43;;;3.40;;
14078;SDS011;7115;50.150;8.568;2024-02-26T07:59:37;4.13;;;2.73;;
14078;SDS011;7115;50.150;8.568;2024-02-26T08:02:06;6.77;;;3.90;;
14078;SDS011;7115;50.150;8.568;2024-02-26T08:04:34;4.77;;;3.30;;
14078;SDS011;7115;50.150;8.568;2024-02-26T08:07:02;6.67;;;4.00;;
14078;SDS011;7115;50.150;8.568;2024-02-26T08:09:30;4.73;;;3.20;;
14078;SDS011;7115;50.150;8.568;2024-02-26T08:11:57;6.13;;;3.80;;
14078;SDS011;7115;50.150;8.568;2024-02-26T08:14:24;10.40;;;3.17;;
14078;SDS011;7115;50.150;8.568;2024-02-26T08:16:51;5.57;;;3.43;;
14078;SDS011;7115;50.150;8.568;2024-02-26T08:19:18;6.93;;;3.50;;
14078;SDS011;7115;50.150;8.568;2024-02-26T08:21:45;7.50;;;3.90;;
14078;SDS011;7115;50.150;8.568;2024-02-26T08:24:13;6.17;;;4.60;;
14078;SDS011;7115;50.150;8.568;2024-02-26T08:26:40;5.37;;;3.23;;
14078;SDS011;7115;50.150;8.568;2024-02-26T08:29:08;4.17;;;2.80;;
14078;SDS011;7115;50.150;8.568;2024-02-26T08:31:35;4.73;;;2.90;;
14078;SDS011;7115;50.150;8.568;2024-02-26T08:34:03;5.63;;;4.40;;
14078;SDS011;7115;50.150;8.568;2024-02-26T08:36:32;9.60;;;5.43;;
14078;SDS011;7115;50.150;8.568;2024-02-26T08:39:00;7.07;;;3.37;;
14078;SDS011;7115;50.150;8.568;2024-02-26T08:41:28;6.20;;;3.40;;
14078;SDS011;7115;50.150;8.568;2024-02-26T08:43:55;4.87;;;3.17;;
14078;SDS011;7115;50.150;8.568;2024-02-26T08:46:22;5.67;;;3.40;;
14078;SDS011;7115;50.150;8.568;2024-02-26T08:48:49;5.50;;;3.40;;
14078;SDS011;7115;50.150;8.568;2024-02-26T08:51:16;6.07;;;3.07;;
14078;SDS011;7115;50.150;8.568;2024-02-26T08:53:43;4.83;;;3.20;;
14078;SDS011;7115;50.150;8.568;2024-02-26T08:56:10;4.83;;;2.93;;
14078;SDS011;7115;50.150;8.568;2024-02-26T08:58:45;5.20;;;3.07;;
14078;SDS011;7115;50.150;8.568;2024-02-26T09:01:15;4.50;;;2.70;;
14078;SDS011;7115;50.150;8.568;2024-02-26T09:03:43;4.87;;;3.17;;
14078;SDS011;7115;50.150;8.568;2024-02-26T09:06:10;4.13;;;2.97;;
14078;SDS011;7115;50.150;8.568;2024-02-26T09:08:40;6.07;;;3.67;;
14078;SDS011;7115;50.150;8.568;2024-02-26T09:11:07;7.07;;;5.37;;
14078;SDS011;7115;50.150;8.568;2024-02-26T09:13:36;5.97;;;4.40;;
14078;SDS011;7115;50.150;8.568;2024-02-26T09:16:06;6.17;;;3.53;;
14078;SDS011;7115;50.150;8.568;2024-02-26T09:18:33;5.37;;;3.10;;
14078;SDS011;7115;50.150;8.568;2024-02-26T09:21:03;6.97;;;3.70;;
14078;SDS011;7115;50.150;8.568;2024-02-26T09:23:31;5.40;;;3.53;;
14078;SDS011;7115;50.150;8.568;2024-02-26T09:25:59;5.70;;;3.37;;
14078;SDS011;7115;50.150;8.568;2024-02-26T09:28:26;4.70;;;3.00;;
14078;SDS011;7115;50.150;8.568;2024-02-26T09:30:53;5.50;;;3.53;;
14078;SDS011;7115;50.150;8.568;2024-02-26T09:33:22;6.57;;;3.60;;
14078;SDS011;7115;50.150;8.568;2024-02-26T09:35:49;5.97;;;4.20;;
14078;SDS011;7115;50.150;8.568;2024-02-26T09:38:16;6.00;;;3.83;;
14078;SDS011;7115;50.150;8.568;2024-02-26T09:40:43;6.40;;;3.57;;
14078;SDS011;7115;50.150;8.568;2024-02-26T09:43:12;7.27;;;3.87;;
14078;SDS011;7115;50.150;8.568;2024-02-26T09:45:41;7.07;;;3.87;;
14078;SDS011;7115;50.150;8.568;2024-02-26T09:48:09;5.97;;;4.00;;
14078;SDS011;7115;50.150;8.568;2024-02-26T09:50:41;6.10;;;4.20;;
14078;SDS011;7115;50.150;8.568;2024-02-26T09:53:10;8.10;;;3.97;;
14078;SDS011;7115;50.150;8.568;2024-02-26T09:55:38;5.67;;;4.00;;
14078;SDS011;7115;50.150;8.568;2024-02-26T09:58:05;6.83;;;3.63;;
14078;SDS011;7115;50.150;8.568;2024-02-26T10:00:35;8.83;;;5.63;;
14078;SDS011;7115;50.150;8.568;2024-02-26T10:03:06;9.70;;;5.63;;
14078;SDS011;7115;50.150;8.568;2024-02-26T10:05:39;8.47;;;4.27;;
14078;SDS011;7115;50.150;8.568;2024-02-26T10:08:12;5.83;;;3.63;;
14078;SDS011;7115;50.150;8.568;2024-02-26T10:10:40;5.60;;;4.03;;
14078;SDS011;7115;50.150;8.568;2024-02-26T10:13:08;8.17;;;3.87;;
14078;SDS011;7115;50.150;8.568;2024-02-26T10:15:38;5.37;;;3.53;;
14078;SDS011;7115;50.150;8.568;2024-02-26T10:18:05;5.83;;;3.50;;
14078;SDS011;7115;50.150;8.568;2024-02-26T10:20:32;6.60;;;3.50;;
14078;SDS011;7115;50.150;8.568;2024-02-26T10:23:03;4.60;;;3.30;;
14078;SDS011;7115;50.150;8.568;2024-02-26T10:25:34;5.13;;;3.23;;
14078;SDS011;7115;50.150;8.568;2024-02-26T10:28:01;6.53;;;3.50;;
14078;SDS011;7115;50.150;8.568;2024-02-26T10:30:29;6.53;;;3.50;;
14078;SDS011;7115;50.150;8.568;2024-02-26T10:32:56;6.73;;;3.40;;
14078;SDS011;7115;50.150;8.568;2024-02-26T10:35:24;5.00;;;3.03;;
14078;SDS011;7115;50.150;8.568;2024-02-26T10:37:52;7.00;;;3.13;;
14078;SDS011;7115;50.150;8.568;2024-02-26T10:40:21;7.23;;;3.70;;
14078;SDS011;7115;50.150;8.568;2024-02-26T10:42:48;6.23;;;3.47;;
14078;SDS011;7115;50.150;8.568;2024-02-26T10:45:15;9.10;;;3.80;;
14078;SDS011;7115;50.150;8.568;2024-02-26T10:47:43;5.63;;;3.53;;
14078;SDS011;7115;50.150;8.568;2024-02-26T10:50:11;4.93;;;3.40;;
14078;SDS011;7115;50.150;8.568;2024-02-26T10:52:41;7.07;;;3.60;;
14078;SDS011;7115;50.150;8.568;2024-02-26T10:55:09;5.47;;;4.07;;
14078;SDS011;7115;50.150;8.568;2024-02-26T10:57:43;7.93;;;4.13;;
14078;SDS011;7115;50.150;8.568;2024-02-26T11:00:13;7.13;;;3.67;;
14078;SDS011;7115;50.150;8.568;2024-02-26T11:02:42;8.20;;;3.17;;
14078;SDS011;7115;50.150;8.568;2024-02-26T11:05:12;4.67;;;3.33;;
14078;SDS011;7115;50.150;8.568;2024-02-26T11:07:41;5.37;;;3.67;;
14078;SDS011;7115;50.150;8.568;2024-02-26T11:10:09;5.70;;;3.57;;
14078;SDS011;7115;50.150;8.568;2024-02-26T11:12:37;7.00;;;4.00;;
14078;SDS011;7115;50.150;8.568;2024-02-26T11:15:08;6.43;;;3.83;;
14078;SDS011;7115;50.150;8.568;2024-02-26T11:17:35;5.20;;;3.70;;
14078;SDS011;7115;50.150;8.568;2024-02-26T11:20:05;5.47;;;3.10;;
14078;SDS011;7115;50.150;8.568;2024-02-26T11:22:37;4.30;;;3.20;;
14078;SDS011;7115;50.150;8.568;2024-02-26T11:25:04;4.87;;;3.40;;
14078;SDS011;7115;50.150;8.568;2024-02-26T11:27:33;4.77;;;3.23;;
14078;SDS011;7115;50.150;8.568;2024-02-26T11:30:05;5.53;;;3.60;;
14078;SDS011;7115;50.150;8.568;2024-02-26T11:32:38;5.20;;;3.33;;
14078;SDS011;7115;50.150;8.568;2024-02-26T11:35:05;9.77;;;3.97;;
14078;SDS011;7115;50.150;8.568;2024-02-26T11:37:34;4.97;;;4.07;;
14078;SDS011;7115;50.150;8.568;2024-02-26T11:40:09;7.10;;;3.87;;
14078;SDS011;7115;50.150;8.568;2024-02-26T11:42:42;5.23;;;3.90;;
14078;SDS011;7115;50.150;8.568;2024-02-26T11:48:16;6.30;;;3.60;;
14078;SDS011;7115;50.150;8.568;2024-02-26T11:50:48;6.40;;;3.80;;
14078;SDS011;7115;50.150;8.568;2024-02-26T11:53:19;5.00;;;3.27;;
14078;SDS011;7115;50.150;8.568;2024-02-26T11:55:48;5.27;;;3.53;;
14078;SDS011;7115;50.150;8.568;2024-02-26T11:58:15;12.77;;;8.43;;
14078;SDS011;7115;50.150;8.568;2024-02-26T12:00:42;5.20;;;3.50;;
14078;SDS011;7115;50.150;8.568;2024-02-26T12:03:09;5.73;;;4.10;;
14078;SDS011;7115;50.150;8.568;2024-02-26T12:05:40;6.03;;;3.00;;
14078;SDS011;7115;50.150;8.568;2024-02-26T12:08:08;6.83;;;4.53;;
14078;SDS011;7115;50.150;8.568;2024-02-26T12:10:36;6.60;;;4.17;;
14078;SDS011;7115;50.150;8.568;2024-02-26T12:13:05;5.00;;;3.20;;
14078;SDS011;7115;50.150;8.568;2024-02-26T12:15:36;4.53;;;3.43;;
14078;SDS011;7115;50.150;8.568;2024-02-26T12:18:04;4.30;;;3.30;;
14078;SDS011;7115;50.150;8.568;2024-02-26T12:20:32;4.03;;;2.90;;
14078;SDS011;7115;50.150;8.568;2024-02-26T12:23:01;4.27;;;3.47;;
14078;SDS011;7115;50.150;8.568;2024-02-26T12:25:29;5.03;;;3.33;;
14078;SDS011;7115;50.150;8.568;2024-02-26T12:27:57;5.87;;;3.87;;
14078;SDS011;7115;50.150;8.568;2024-02-26T12:30:24;4.73;;;3.33;;
14078;SDS011;7115;50.150;8.568;2024-02-26T12:32:53;4.30;;;3.30;;
14078;SDS011;7115;50.150;8.568;2024-02-26T12:35:23;4.80;;;3.10;;
14078;SDS011;7115;50.150;8.568;2024-02-26T12:37:51;4.97;;;2.93;;
14078;SDS011;7115;50.150;8.568;2024-02-26T12:40:21;5.37;;;3.47;;
14078;SDS011;7115;50.150;8.568;2024-02-26T12:42:48;4.83;;;3.60;;
14078;SDS011;7115;50.150;8.568;2024-02-26T12:45:15;6.57;;;3.47;;
14078;SDS011;7115;50.150;8.568;2024-02-26T12:47:43;4.90;;;3.30;;
14078;SDS011;7115;50.150;8.568;2024-02-26T12:50:12;4.40;;;3.13;;
14078;SDS011;7115;50.150;8.568;2024-02-26T12:52:40;4.87;;;3.07;;
14078;SDS011;7115;50.150;8.568;2024-02-26T12:55:11;5.00;;;3.17;;
14078;SDS011;7115;50.150;8.568;2024-02-26T12:57:43;9.03;;;6.10;;
14078;SDS011;7115;50.150;8.568;2024-02-26T13:00:12;4.70;;;3.30;;
14078;SDS011;7115;50.150;8.568;2024-02-26T13:02:41;5.00;;;3.33;;
14078;SDS011;7115;50.150;8.568;2024-02-26T13:05:11;5.63;;;3.30;;
14078;SDS011;7115;50.150;8.568;2024-02-26T13:07:42;5.23;;;3.03;;
14078;SDS011;7115;50.150;8.568;2024-02-26T13:10:10;7.43;;;3.03;;
14078;SDS011;7115;50.150;8.568;2024-02-26T13:12:45;4.83;;;3.00;;
14078;SDS011;7115;50.150;8.568;2024-02-26T13:15:16;4.23;;;3.20;;
14078;SDS011;7115;50.150;8.568;2024-02-26T13:17:45;3.20;;;2.73;;
14078;SDS011;7115;50.150;8.568;2024-02-26T13:20:13;3.83;;;2.50;;
14078;SDS011;7115;50.150;8.568;2024-02-26T13:22:51;3.80;;;2.83;;
14078;SDS011;7115;50.150;8.568;2024-02-26T13:25:26;3.77;;;2.67;;
14078;SDS011;7115;50.150;8.568;2024-02-26T13:28:05;6.20;;;2.83;;
14078;SDS011;7115;50.150;8.568;2024-02-26T13:30:34;6.93;;;3.10;;
14078;SDS011;7115;50.150;8.568;2024-02-26T13:33:08;6.43;;;3.73;;
14078;SDS011;7115;50.150;8.568;2024-02-26T13:35:37;4.27;;;3.07;;
14078;SDS011;7115;50.150;8.568;2024-02-26T13:38:05;4.47;;;3.07;;
14078;SDS011;7115;50.150;8.568;2024-02-26T13:40:33;6.00;;;2.87;;
14078;SDS011;7115;50.150;8.568;2024-02-26T13:43:04;5.73;;;3.07;;
14078;SDS011;7115;50.150;8.568;2024-02-26T13:45:33;8.83;;;3.10;;
14078;SDS011;7115;50.150;8.568;2024-02-26T13:48:02;5.13;;;2.90;;
14078;SDS011;7115;50.150;8.568;2024-02-26T13:50:30;4.90;;;2.93;;
14078;SDS011;7115;50.150;8.568;2024-02-26T13:52:58;4.47;;;2.70;;
14078;SDS011;7115;50.150;8.568;2024-02-26T13:55:25;4.47;;;3.07;;
14078;SDS011;7115;50.150;8.568;2024-02-26T13:57:54;4.57;;;2.60;;
14078;SDS011;7115;50.150;8.568;2024-02-26T14:00:24;3.83;;;2.90;;
14078;SDS011;7115;50.150;8.568;2024-02-26T14:02:53;4.90;;;3.63;;
14078;SDS011;7115;50.150;8.568;2024-02-26T14:05:21;5.20;;;3.37;;
14078;SDS011;7115;50.150;8.568;2024-02-26T14:07:48;4.30;;;2.77;;
14078;SDS011;7115;50.150;8.568;2024-02-26T14:10:18;6.57;;;2.93;;
14078;SDS011;7115;50.150;8.568;2024-02-26T14:12:45;4.50;;;3.27;;
14078;SDS011;7115;50.150;8.568;2024-02-26T14:15:12;4.57;;;3.17;;
14078;SDS011;7115;50.150;8.568;2024-02-26T14:17:41;4.90;;;3.23;;
14078;SDS011;7115;50.150;8.568;2024-02-26T14:20:10;4.67;;;3.27;;
14078;SDS011;7115;50.150;8.568;2024-02-26T14:22:37;4.57;;;3.03;;
14078;SDS011;7115;50.150;8.568;2024-02-26T14:25:04;2.90;;;2.53;;
14078;SDS011;7115;50.150;8.568;2024-02-26T14:27:31;6.63;;;3.67;;
14078;SDS011;7115;50.150;8.568;2024-02-26T14:29:58;7.83;;;4.03;;
14078;SDS011;7115;50.150;8.568;2024-02-26T14:32:25;5.37;;;3.90;;
14078;SDS011;7115;50.150;8.568;2024-02-26T14:34:55;4.50;;;2.93;;
14078;SDS011;7115;50.150;8.568;2024-02-26T14:37:22;4.07;;;2.57;;
14078;SDS011;7115;50.150;8.568;2024-02-26T14:39:49;4.57;;;2.80;;
14078;SDS011;7115;50.150;8.568;2024-02-26T14:42:18;3.93;;;2.90;;
14078;SDS011;7115;50.150;8.568;2024-02-26T14:44:45;4.70;;;3.03;;
14078;SDS011;7115;50.150;8.568;2024-02-26T14:47:14;3.70;;;2.70;;
14078;SDS011;7115;50.150;8.568;2024-02-26T14:49:41;3.47;;;2.77;;
14078;SDS011;7115;50.150;8.568;2024-02-26T14:52:10;4.17;;;2.77;;
14078;SDS011;7115;50.150;8.568;2024-02-26T14:54:37;4.47;;;2.53;;
14078;SDS011;7115;50.150;8.568;2024-02-26T14:57:05;4.20;;;2.57;;
14078;SDS011;7115;50.150;8.568;2024-02-26T14:59:33;3.13;;;2.23;;
14078;SDS011;7115;50.150;8.568;2024-02-26T15:02:00;3.57;;;2.40;;
14078;SDS011;7115;50.150;8.568;2024-02-26T15:04:27;3.60;;;2.70;;
14078;SDS011;7115;50.150;8.568;2024-02-26T15:06:54;3.67;;;2.57;;
14078;SDS011;7115;50.150;8.568;2024-02-26T15:09:23;3.87;;;2.70;;